Terminal Aerodrome Forecast
Issued by NWS

Home | Current Version | Previous Version | Text Only | Print | Product List | Glossary On
Versions: 1 2 3 4 5 6 7 8 9 10 11 12 13 14 15 16 17 18 19 20 21
000
FTUS46 KOTX 202338
TAFPUW
TAF
KPUW 202338Z 2100/2124 24010KT P6SM -SHRA FEW015 SCT025 BKN040
      TEMPO 2100/2101 24009G17KT -RA BKN020
     FM210300 22006KT P6SM VCSH SCT020 BKN040
     FM210600 VRB03KT P6SM BKN020 OVC040
     FM211400 21007KT P6SM BKN025 OVC050
     FM211900 27008KT P6SM VCSH BKN040 OVC080=

USA.gov is the U.S. government's official web portal to all federal, state and local government web resources and services.